Time;durP1;ratioP1;P1;durP2;ratioP2;P2;SDS_P1;SDS_P2;PMS_P1;PMS_P2;Temp;Humidity;BMP_temperature;BMP_pressure;BME280_temperature;BME280_humidity;BME280_pressure;Samples;Min_cycle;Max_cycle;Signal;HPM_P1;HPM_P2
2024/04/16 00:00:21;;;;;;;;;;;;;;;;;;5451627;26;19996;-62
2024/04/16 00:02:46;;;;;;;;;;;;;;;;;;5452918;26;19935;-62
2024/04/16 00:05:12;;;;;;;;;;;;;;;;;;5456055;26;19940;-62
2024/04/16 00:07:37;;;;;;;;;;;;;;;;;;5451493;26;19929;-62
2024/04/16 00:10:02;;;;;;;;;;;;;;;;;;5450893;26;19929;-62
2024/04/16 00:12:27;;;;;;;;;;;;;;;;;;5450648;26;19960;-62
2024/04/16 00:14:52;;;;;;;;;;;;;;;;;;5416416;26;19999;-62
2024/04/16 00:17:18;;;;;;;;;;;;;;;;;;5416636;26;19928;-62
2024/04/16 00:19:43;;;;;;;;;;;;;;;;;;5416700;26;20358;-62
2024/04/16 00:22:08;;;;;;;;;;;;;;;;;;5416156;26;19931;-62
2024/04/16 00:24:34;;;;;;;;;;;;;;;;;;5444503;26;19936;-63
2024/04/16 00:26:59;;;;;;;;;;;;;;;;;;5451040;26;19935;-62
2024/04/16 00:29:24;;;;;;;;;;;;;;;;;;5451270;26;19928;-62
2024/04/16 00:31:49;;;;;;;;;;;;;;;;;;5451190;26;20303;-62
2024/04/16 00:34:14;;;;;;;;;;;;;;;;;;5450989;26;19928;-62
2024/04/16 00:36:39;;;;;;;;;;;;;;;;;;5451164;26;19936;-62
2024/04/16 00:39:05;;;;;;;;;;;;;;;;;;5450760;26;19952;-62
2024/04/16 00:41:30;;;;;;;;;;;;;;;;;;5450982;26;19929;-63
2024/04/16 00:43:55;;;;;;;;;;;;;;;;;;5450722;26;19929;-62
2024/04/16 00:46:20;;;;;;;;;;;;;;;;;;5450567;26;20385;-62
2024/04/16 00:48:45;;;;;;;;;;;;;;;;;;5450763;26;20373;-62
2024/04/16 00:51:10;;;;;;;;;;;;;;;;;;5450411;26;20392;-62
2024/04/16 00:53:35;;;;;;;;;;;;;;;;;;5450661;26;20370;-62
2024/04/16 00:56:00;;;;;;;;;;;;;;;;;;5450947;26;20370;-62
2024/04/16 00:58:25;;;;;;;;;;;;;;;;;;5451048;26;19928;-62
2024/04/16 01:00:51;;;;;;;;;;;;;;;;;;5449566;26;19940;-60
2024/04/16 01:03:16;;;;;;;;;;;;;;;;;;5456567;26;19927;-60
2024/04/16 01:05:41;;;;;;;;;;;;;;;;;;5450412;26;19928;-60
2024/04/16 01:08:06;;;;;;;;;;;;;;;;;;5450410;26;19928;-60
2024/04/16 01:10:31;;;;;;;;;;;;;;;;;;5450527;26;19932;-60
2024/04/16 01:12:56;;;;;;;;;;;;;;;;;;5450578;26;19936;-59
2024/04/16 01:15:21;;;;;;;;;;;;;;;;;;5449869;26;20321;-59
2024/04/16 01:17:46;;;;;;;;;;;;;;;;;;5431291;26;20450;-60
2024/04/16 01:20:12;;;;;;;;;;;;;;;;;;5442885;26;19928;-59
2024/04/16 01:22:37;;;;;;;;;;;;;;;;;;5450364;26;19936;-60
2024/04/16 01:25:02;;;;;;;;;;;;;;;;;;5450243;26;19968;-60
2024/04/16 01:27:27;;;;;;;;;;;;;;;;;;5450463;26;19929;-60
2024/04/16 01:29:52;;;;;;;;;;;;;;;;;;5450449;26;19928;-63
2024/04/16 01:32:18;;;;;;;;;;;;;;;;;;5450055;26;20389;-60
2024/04/16 01:34:43;;;;;;;;;;;;;;;;;;5449981;26;19928;-61
2024/04/16 01:37:08;;;;;;;;;;;;;;;;;;5450206;26;19941;-61
2024/04/16 01:39:34;;;;;;;;;;;;;;;;;;5443658;26;19937;-61
2024/04/16 01:41:59;;;;;;;;;;;;;;;;;;5449802;26;19928;-60
2024/04/16 01:44:24;;;;;;;;;;;;;;;;;;5457058;26;19928;-61
2024/04/16 01:46:49;;;;;;;;;;;;;;;;;;5445760;26;19937;-61
2024/04/16 01:49:14;;;;;;;;;;;;;;;;;;5423731;26;20044;-60
2024/04/16 01:51:39;;;;;;;;;;;;;;;;;;5435263;26;19929;-60
2024/04/16 01:54:04;;;;;;;;;;;;;;;;;;5442815;26;19929;-59
2024/04/16 01:56:30;;;;;;;;;;;;;;;;;;5415235;26;19976;-61
2024/04/16 01:58:55;;;;;;;;;;;;;;;;;;5414721;26;19933;-62
2024/04/16 02:01:20;;;;;;;;;;;;;;;;;;5414981;26;19935;-60
2024/04/16 02:03:45;;;;;;;;;;;;;;;;;;5415033;26;19979;-62
2024/04/16 02:06:10;;;;;;;;;;;;;;;;;;5414857;26;19937;-61
2024/04/16 02:08:35;;;;;;;;;;;;;;;;;;5434696;26;19965;-61
2024/04/16 02:11:00;;;;;;;;;;;;;;;;;;5449827;26;19935;-60
2024/04/16 02:13:26;;;;;;;;;;;;;;;;;;5456046;26;19935;-60
2024/04/16 02:15:51;;;;;;;;;;;;;;;;;;5449588;26;19939;-61
2024/04/16 02:18:16;;;;;;;;;;;;;;;;;;5448960;26;19974;-60
2024/04/16 02:20:41;;;;;;;;;;;;;;;;;;5449228;26;19935;-60
2024/04/16 02:23:06;;;;;;;;;;;;;;;;;;5449370;26;20399;-61
2024/04/16 02:25:31;;;;;;;;;;;;;;;;;;5449209;26;19943;-61
2024/04/16 02:27:56;;;;;;;;;;;;;;;;;;5449889;26;19933;-61
2024/04/16 02:30:22;;;;;;;;;;;;;;;;;;5452746;26;19929;-62
2024/04/16 02:32:47;;;;;;;;;;;;;;;;;;5452882;26;20322;-61
2024/04/16 02:35:12;;;;;;;;;;;;;;;;;;5452088;26;19929;-60
2024/04/16 02:37:37;;;;;;;;;;;;;;;;;;5451606;26;19987;-60
2024/04/16 02:40:02;;;;;;;;;;;;;;;;;;5452554;26;19928;-61
2024/04/16 02:42:27;;;;;;;;;;;;;;;;;;5454273;26;19929;-61
2024/04/16 02:44:52;;;;;;;;;;;;;;;;;;5456957;26;19937;-62
2024/04/16 02:47:17;;;;;;;;;;;;;;;;;;5452348;26;19928;-62
2024/04/16 02:49:43;;;;;;;;;;;;;;;;;;5452483;26;19928;-61
2024/04/16 02:52:08;;;;;;;;;;;;;;;;;;5452072;26;19940;-60
2024/04/16 02:54:33;;;;;;;;;;;;;;;;;;5452504;26;20315;-61
2024/04/16 02:56:58;;;;;;;;;;;;;;;;;;5452253;26;20254;-62
2024/04/16 02:59:23;;;;;;;;;;;;;;;;;;5452165;26;20256;-62
2024/04/16 03:01:48;;;;;;;;;;;;;;;;;;5452546;26;20268;-60
2024/04/16 03:04:14;;;;;;;;;;;;;;;;;;5452649;26;20264;-60
2024/04/16 03:06:39;;;;;;;;;;;;;;;;;;5451958;26;20015;-61
2024/04/16 03:09:04;;;;;;;;;;;;;;;;;;5452393;26;19929;-61
2024/04/16 03:11:29;;;;;;;;;;;;;;;;;;5452156;26;19928;-60
2024/04/16 03:13:54;;;;;;;;;;;;;;;;;;5451614;26;19940;-61
2024/04/16 03:16:19;;;;;;;;;;;;;;;;;;5452114;26;19935;-61
2024/04/16 03:18:45;;;;;;;;;;;;;;;;;;5452175;26;20013;-60
2024/04/16 03:21:10;;;;;;;;;;;;;;;;;;5452030;26;19997;-61
2024/04/16 03:23:35;;;;;;;;;;;;;;;;;;5452371;26;19929;-61
2024/04/16 03:26:00;;;;;;;;;;;;;;;;;;5451832;26;19933;-61
2024/04/16 03:28:26;;;;;;;;;;;;;;;;;;5451990;26;20288;-61
2024/04/16 03:30:51;;;;;;;;;;;;;;;;;;5451669;26;20343;-61
2024/04/16 03:33:17;;;;;;;;;;;;;;;;;;5452273;26;20262;-60
2024/04/16 03:35:42;;;;;;;;;;;;;;;;;;5451712;26;20276;-60
2024/04/16 03:38:07;;;;;;;;;;;;;;;;;;5451463;26;20296;-60
2024/04/16 03:40:32;;;;;;;;;;;;;;;;;;5451494;26;20446;-60
2024/04/16 03:42:58;;;;;;;;;;;;;;;;;;5456884;26;19942;-60
2024/04/16 03:45:23;;;;;;;;;;;;;;;;;;5451683;26;19928;-61
2024/04/16 03:47:48;;;;;;;;;;;;;;;;;;5451671;26;19933;-62
2024/04/16 03:50:13;;;;;;;;;;;;;;;;;;5450506;26;19932;-60
2024/04/16 03:52:38;;;;;;;;;;;;;;;;;;5451072;26;20408;-62
2024/04/16 03:55:05;;;;;;;;;;;;;;;;;;5434176;26;20373;-60
2024/04/16 03:57:30;;;;;;;;;;;;;;;;;;5416933;26;19960;-60
2024/04/16 04:02:39;;;;;;;;;;;;;;;;;;5439294;26;19935;-61
2024/04/16 04:05:04;;;;;;;;;;;;;;;;;;5451437;26;20269;-61
2024/04/16 04:07:29;;;;;;;;;;;;;;;;;;5451439;26;19932;-61
2024/04/16 04:09:54;;;;;;;;;;;;;;;;;;5451104;26;19965;-61
2024/04/16 04:12:19;;;;;;;;;;;;;;;;;;5451241;26;19936;-61
2024/04/16 04:14:45;;;;;;;;;;;;;;;;;;5421329;26;19940;-61
2024/04/16 04:17:10;;;;;;;;;;;;;;;;;;5438099;26;20370;-61
2024/04/16 04:19:35;;;;;;;;;;;;;;;;;;5426570;26;20318;-61
2024/04/16 04:22:00;;;;;;;;;;;;;;;;;;5449899;26;19969;-60
2024/04/16 04:24:25;;;;;;;;;;;;;;;;;;5450696;26;20342;-60
2024/04/16 04:26:50;;;;;;;;;;;;;;;;;;5451040;26;19935;-59
2024/04/16 04:29:15;;;;;;;;;;;;;;;;;;5451135;26;19937;-61
2024/04/16 04:31:40;;;;;;;;;;;;;;;;;;5430333;26;19929;-61
2024/04/16 04:34:06;;;;;;;;;;;;;;;;;;5416163;26;20381;-60
2024/04/16 04:36:31;;;;;;;;;;;;;;;;;;5449624;26;19929;-60
2024/04/16 04:38:56;;;;;;;;;;;;;;;;;;5450714;26;19932;-59
2024/04/16 04:41:21;;;;;;;;;;;;;;;;;;5449628;26;19936;-60
2024/04/16 04:43:50;;;;;;;;;;;;;;;;;;5434479;26;19957;-61
2024/04/16 04:46:15;;;;;;;;;;;;;;;;;;5415902;26;19929;-60
2024/04/16 04:48:40;;;;;;;;;;;;;;;;;;5418263;26;19975;-60
2024/04/16 04:51:05;;;;;;;;;;;;;;;;;;5448916;26;19936;-60
2024/04/16 04:53:30;;;;;;;;;;;;;;;;;;5450650;26;19928;-60
2024/04/16 04:55:56;;;;;;;;;;;;;;;;;;5450637;26;19929;-59
2024/04/16 04:58:21;;;;;;;;;;;;;;;;;;5450112;26;19939;-60
2024/04/16 05:00:46;;;;;;;;;;;;;;;;;;5450042;26;19929;-59
2024/04/16 05:03:11;;;;;;;;;;;;;;;;;;5440984;26;19935;-60
2024/04/16 05:05:37;;;;;;;;;;;;;;;;;;5434581;26;19936;-59
2024/04/16 05:08:02;;;;;;;;;;;;;;;;;;5434494;26;19929;-61
2024/04/16 05:10:27;;;;;;;;;;;;;;;;;;5449397;26;20377;-59
2024/04/16 05:12:52;;;;;;;;;;;;;;;;;;5447174;26;19936;-59
2024/04/16 05:15:17;;;;;;;;;;;;;;;;;;5449060;26;20265;-59
2024/04/16 05:17:43;;;;;;;;;;;;;;;;;;5447516;26;20015;-59
2024/04/16 05:20:08;;;;;;;;;;;;;;;;;;5447455;26;19928;-59
2024/04/16 05:22:33;;;;;;;;;;;;;;;;;;5444526;26;20339;-60
2024/04/16 05:24:59;;;;;;;;;;;;;;;;;;5444346;26;19940;-60
2024/04/16 05:27:24;;;;;;;;;;;;;;;;;;5432613;26;19928;-58
2024/04/16 05:29:49;;;;;;;;;;;;;;;;;;5440833;26;20013;-59
2024/04/16 05:32:14;;;;;;;;;;;;;;;;;;5447495;26;20404;-60
2024/04/16 05:34:39;;;;;;;;;;;;;;;;;;5442143;26;19973;-58
2024/04/16 05:37:04;;;;;;;;;;;;;;;;;;5447734;26;19929;-60
2024/04/16 05:39:29;;;;;;;;;;;;;;;;;;5447509;26;19932;-62
2024/04/16 05:41:54;;;;;;;;;;;;;;;;;;5450075;26;19971;-62
2024/04/16 05:44:20;;;;;;;;;;;;;;;;;;5429119;26;19940;-62
2024/04/16 05:46:45;;;;;;;;;;;;;;;;;;5419593;26;19929;-62
2024/04/16 05:49:10;;;;;;;;;;;;;;;;;;5428477;26;19941;-62
2024/04/16 05:51:35;;;;;;;;;;;;;;;;;;5439215;26;19929;-62
2024/04/16 05:54:03;;;;;;;;;;;;;;;;;;5414695;26;20011;-62
2024/04/16 05:56:28;;;;;;;;;;;;;;;;;;5415170;26;19980;-62
2024/04/16 05:58:53;;;;;;;;;;;;;;;;;;5421994;26;19928;-62
2024/04/16 06:01:19;;;;;;;;;;;;;;;;;;5414812;26;19929;-63
2024/04/16 06:03:44;;;;;;;;;;;;;;;;;;5418249;26;19929;-63
2024/04/16 06:06:09;;;;;;;;;;;;;;;;;;5431934;26;20511;-63
2024/04/16 06:08:35;;;;;;;;;;;;;;;;;;5452601;26;19935;-63
2024/04/16 06:11:00;;;;;;;;;;;;;;;;;;5453160;26;20438;-63
2024/04/16 06:13:25;;;;;;;;;;;;;;;;;;5440592;26;20373;-62
2024/04/16 06:15:50;;;;;;;;;;;;;;;;;;5418150;26;20571;-62
2024/04/16 06:18:15;;;;;;;;;;;;;;;;;;5418016;26;20365;-63
2024/04/16 06:20:40;;;;;;;;;;;;;;;;;;5417980;26;19960;-63
2024/04/16 06:23:05;;;;;;;;;;;;;;;;;;5430502;26;20002;-62
2024/04/16 06:25:30;;;;;;;;;;;;;;;;;;5452840;26;19940;-63
2024/04/16 06:27:56;;;;;;;;;;;;;;;;;;5452548;26;20258;-63
2024/04/16 06:30:21;;;;;;;;;;;;;;;;;;5480028;26;19928;-62
2024/04/16 06:32:46;;;;;;;;;;;;;;;;;;5451336;26;20022;-62
2024/04/16 06:35:11;;;;;;;;;;;;;;;;;;5452273;26;19935;-62
2024/04/16 06:37:36;;;;;;;;;;;;;;;;;;5452534;26;19929;-62
2024/04/16 06:40:01;;;;;;;;;;;;;;;;;;5452283;26;19952;-62
2024/04/16 06:42:26;;;;;;;;;;;;;;;;;;5452611;26;19928;-62
2024/04/16 06:44:52;;;;;;;;;;;;;;;;;;5445005;26;19928;-62
2024/04/16 06:47:17;;;;;;;;;;;;;;;;;;5452507;26;19929;-63
2024/04/16 06:49:42;;;;;;;;;;;;;;;;;;5452267;26;19945;-62
2024/04/16 06:52:08;;;;;;;;;;;;;;;;;;5452133;26;19929;-63
2024/04/16 06:54:33;;;;;;;;;;;;;;;;;;5451816;26;19929;-63
2024/04/16 06:56:58;;;;;;;;;;;;;;;;;;5452174;26;19940;-63
2024/04/16 06:59:24;;;;;;;;;;;;;;;;;;5452322;26;19978;-63
2024/04/16 07:01:49;;;;;;;;;;;;;;;;;;5452337;26;19975;-63
2024/04/16 07:04:14;;;;;;;;;;;;;;;;;;5452641;26;19978;-63
2024/04/16 07:06:39;;;;;;;;;;;;;;;;;;5452314;26;20377;-63
2024/04/16 07:09:05;;;;;;;;;;;;;;;;;;5452199;26;19936;-63
2024/04/16 07:11:30;;;;;;;;;;;;;;;;;;5451893;26;19928;-63
2024/04/16 07:13:55;;;;;;;;;;;;;;;;;;5440555;26;20009;-63
2024/04/16 07:16:20;;;;;;;;;;;;;;;;;;5452068;26;20001;-63
2024/04/16 07:18:45;;;;;;;;;;;;;;;;;;5446023;26;19928;-63
2024/04/16 07:21:10;;;;;;;;;;;;;;;;;;5452218;26;19935;-63
2024/04/16 07:23:35;;;;;;;;;;;;;;;;;;5452129;26;19929;-63
2024/04/16 07:26:00;;;;;;;;;;;;;;;;;;5451460;26;19940;-63
2024/04/16 07:28:26;;;;;;;;;;;;;;;;;;5451232;26;20710;-63
2024/04/16 07:30:51;;;;;;;;;;;;;;;;;;5450826;26;19928;-63
2024/04/16 07:33:16;;;;;;;;;;;;;;;;;;5451727;26;20382;-63
2024/04/16 07:35:41;;;;;;;;;;;;;;;;;;5450716;26;19936;-62
2024/04/16 07:38:06;;;;;;;;;;;;;;;;;;5417656;26;20363;-63
2024/04/16 07:40:32;;;;;;;;;;;;;;;;;;5445415;26;20329;-63
2024/04/16 07:42:57;;;;;;;;;;;;;;;;;;5444729;26;20368;-63
2024/04/16 07:45:22;;;;;;;;;;;;;;;;;;5424895;26;19937;-63
2024/04/16 07:47:47;;;;;;;;;;;;;;;;;;5424679;26;19929;-63
2024/04/16 07:50:12;;;;;;;;;;;;;;;;;;5451796;26;19952;-62
2024/04/16 07:52:37;;;;;;;;;;;;;;;;;;5451236;26;20373;-62
2024/04/16 07:55:03;;;;;;;;;;;;;;;;;;5451254;26;19935;-63
2024/04/16 07:57:28;;;;;;;;;;;;;;;;;;5451466;26;19928;-63
2024/04/16 07:59:53;;;;;;;;;;;;;;;;;;5437389;26;19935;-61
2024/04/16 08:02:18;;;;;;;;;;;;;;;;;;5416834;26;19929;-61
2024/04/16 08:04:43;;;;;;;;;;;;;;;;;;5423943;26;19937;-61
2024/04/16 08:07:08;;;;;;;;;;;;;;;;;;5452016;26;19940;-61
2024/04/16 08:09:33;;;;;;;;;;;;;;;;;;5451360;26;19928;-61
2024/04/16 08:11:59;;;;;;;;;;;;;;;;;;5451131;26;19936;-61
2024/04/16 08:14:24;;;;;;;;;;;;;;;;;;5422580;26;20003;-61
2024/04/16 08:16:49;;;;;;;;;;;;;;;;;;5448765;26;20352;-62
2024/04/16 08:19:14;;;;;;;;;;;;;;;;;;5451208;26;20269;-61
2024/04/16 08:21:39;;;;;;;;;;;;;;;;;;5450918;26;19936;-61
2024/04/16 08:24:05;;;;;;;;;;;;;;;;;;5451156;26;19936;-60
2024/04/16 08:26:30;;;;;;;;;;;;;;;;;;5449463;26;19932;-61
2024/04/16 08:28:55;;;;;;;;;;;;;;;;;;5450973;26;19935;-61
2024/04/16 08:31:20;;;;;;;;;;;;;;;;;;5451100;26;19943;-61
2024/04/16 08:33:45;;;;;;;;;;;;;;;;;;5450999;26;20379;-61
2024/04/16 08:36:10;;;;;;;;;;;;;;;;;;5450909;26;19996;-60
2024/04/16 08:38:35;;;;;;;;;;;;;;;;;;5450124;26;19986;-60
2024/04/16 08:41:01;;;;;;;;;;;;;;;;;;5450699;26;19997;-61
2024/04/16 08:43:26;;;;;;;;;;;;;;;;;;5436022;26;19936;-61
2024/04/16 08:45:51;;;;;;;;;;;;;;;;;;5443561;26;19940;-61
2024/04/16 08:48:16;;;;;;;;;;;;;;;;;;5451113;26;19928;-61
2024/04/16 08:50:41;;;;;;;;;;;;;;;;;;5450627;26;19929;-61
2024/04/16 08:53:06;;;;;;;;;;;;;;;;;;5450754;26;19928;-62
2024/04/16 08:55:34;;;;;;;;;;;;;;;;;;5450697;26;20361;-61
2024/04/16 08:58:00;;;;;;;;;;;;;;;;;;5450695;26;19928;-61
2024/04/16 09:00:25;;;;;;;;;;;;;;;;;;5450834;26;19936;-61
2024/04/16 09:02:50;;;;;;;;;;;;;;;;;;5450084;26;20009;-60
2024/04/16 09:05:15;;;;;;;;;;;;;;;;;;5450338;26;19940;-61
2024/04/16 09:07:41;;;;;;;;;;;;;;;;;;5450616;26;19928;-61
2024/04/16 09:10:06;;;;;;;;;;;;;;;;;;5450214;26;20715;-62
2024/04/16 09:12:31;;;;;;;;;;;;;;;;;;5448003;26;19940;-62
2024/04/16 09:14:56;;;;;;;;;;;;;;;;;;5415835;26;19928;-62
2024/04/16 09:17:21;;;;;;;;;;;;;;;;;;5449346;26;19936;-62
2024/04/16 09:19:46;;;;;;;;;;;;;;;;;;5433421;26;19936;-63
2024/04/16 09:22:12;;;;;;;;;;;;;;;;;;5420544;26;19928;-63
2024/04/16 09:24:37;;;;;;;;;;;;;;;;;;5415699;26;19929;-62
2024/04/16 09:27:03;;;;;;;;;;;;;;;;;;5418345;26;19929;-62
2024/04/16 09:29:28;;;;;;;;;;;;;;;;;;5430515;26;19936;-62
2024/04/16 09:31:53;;;;;;;;;;;;;;;;;;5450271;26;19928;-63
2024/04/16 09:34:18;;;;;;;;;;;;;;;;;;5450383;26;19960;-62
2024/04/16 09:36:43;;;;;;;;;;;;;;;;;;5449597;26;19936;-62
2024/04/16 09:39:08;;;;;;;;;;;;;;;;;;5450130;26;19940;-62
2024/04/16 09:41:34;;;;;;;;;;;;;;;;;;5450062;26;19968;-62
2024/04/16 09:43:59;;;;;;;;;;;;;;;;;;5447982;26;19928;-61
2024/04/16 09:46:24;;;;;;;;;;;;;;;;;;5449851;26;19928;-62
2024/04/16 09:48:49;;;;;;;;;;;;;;;;;;5449246;26;20374;-62
2024/04/16 09:51:14;;;;;;;;;;;;;;;;;;5449988;26;20382;-62
2024/04/16 09:53:39;;;;;;;;;;;;;;;;;;5449573;26;19928;-61
2024/04/16 09:56:05;;;;;;;;;;;;;;;;;;5449699;26;20299;-64
2024/04/16 09:58:30;;;;;;;;;;;;;;;;;;5449877;26;19933;-62
2024/04/16 10:00:55;;;;;;;;;;;;;;;;;;5449605;26;19928;-63
2024/04/16 10:03:20;;;;;;;;;;;;;;;;;;5449539;26;19946;-61
2024/04/16 10:05:46;;;;;;;;;;;;;;;;;;5449575;26;19939;-61
2024/04/16 10:08:11;;;;;;;;;;;;;;;;;;5448631;26;20476;-61
2024/04/16 10:10:36;;;;;;;;;;;;;;;;;;5421895;26;19933;-61
2024/04/16 10:13:01;;;;;;;;;;;;;;;;;;5421454;26;19960;-60
2024/04/16 10:15:26;;;;;;;;;;;;;;;;;;5436518;26;19935;-61
2024/04/16 10:17:51;;;;;;;;;;;;;;;;;;5435565;26;19965;-61
2024/04/16 10:20:16;;;;;;;;;;;;;;;;;;5415976;26;19941;-60
2024/04/16 10:22:42;;;;;;;;;;;;;;;;;;5449283;26;20300;-60
2024/04/16 10:25:07;;;;;;;;;;;;;;;;;;5449617;26;19997;-60
2024/04/16 10:27:32;;;;;;;;;;;;;;;;;;5448936;26;19936;-60
2024/04/16 10:30:00;;;;;;;;;;;;;;;;;;5448369;26;19935;-61
2024/04/16 10:32:25;;;;;;;;;;;;;;;;;;5449274;26;19936;-61
2024/04/16 10:34:50;;;;;;;;;;;;;;;;;;5449114;26;19928;-60
2024/04/16 10:37:15;;;;;;;;;;;;;;;;;;5448894;26;19928;-61
2024/04/16 10:39:40;;;;;;;;;;;;;;;;;;5449072;26;19928;-60
2024/04/16 10:42:06;;;;;;;;;;;;;;;;;;5448844;26;19937;-61
2024/04/16 10:44:31;;;;;;;;;;;;;;;;;;5424190;26;19937;-61
2024/04/16 10:46:56;;;;;;;;;;;;;;;;;;5413931;26;20020;-62
2024/04/16 10:49:26;;;;;;;;;;;;;;;;;;5415531;26;19929;-61
2024/04/16 10:51:52;;;;;;;;;;;;;;;;;;5417506;26;19933;-61
2024/04/16 10:54:17;;;;;;;;;;;;;;;;;;5418663;26;19940;-61
2024/04/16 10:56:42;;;;;;;;;;;;;;;;;;5452242;26;20434;-61
2024/04/16 10:59:07;;;;;;;;;;;;;;;;;;5452457;26;20434;-60
2024/04/16 11:01:32;;;;;;;;;;;;;;;;;;5451755;26;20305;-61
2024/04/16 11:03:57;;;;;;;;;;;;;;;;;;5452192;26;20273;-61
2024/04/16 11:06:22;;;;;;;;;;;;;;;;;;5452318;26;19947;-61
2024/04/16 11:08:47;;;;;;;;;;;;;;;;;;5452280;26;19995;-61
2024/04/16 11:11:13;;;;;;;;;;;;;;;;;;5452113;26;19940;-61
2024/04/16 11:13:38;;;;;;;;;;;;;;;;;;5438643;26;20347;-61
2024/04/16 11:16:03;;;;;;;;;;;;;;;;;;5418754;26;19941;-60
2024/04/16 11:18:30;;;;;;;;;;;;;;;;;;5417259;26;19929;-61
2024/04/16 11:20:55;;;;;;;;;;;;;;;;;;5417277;26;19929;-60
2024/04/16 11:23:21;;;;;;;;;;;;;;;;;;5417333;26;19998;-60
2024/04/16 11:25:46;;;;;;;;;;;;;;;;;;5417299;26;19932;-60
2024/04/16 11:28:11;;;;;;;;;;;;;;;;;;5417192;26;20377;-61
2024/04/16 11:30:36;;;;;;;;;;;;;;;;;;5451782;26;19928;-61
2024/04/16 11:33:01;;;;;;;;;;;;;;;;;;5451936;26;19929;-61
2024/04/16 11:35:26;;;;;;;;;;;;;;;;;;5456574;26;19932;-61
2024/04/16 11:37:51;;;;;;;;;;;;;;;;;;5451829;26;19997;-61
2024/04/16 11:40:17;;;;;;;;;;;;;;;;;;5451761;26;19936;-61
2024/04/16 11:42:42;;;;;;;;;;;;;;;;;;5440732;26;19928;-61
2024/04/16 11:45:08;;;;;;;;;;;;;;;;;;5417256;26;19995;-61
2024/04/16 11:47:33;;;;;;;;;;;;;;;;;;5450177;26;19928;-61
2024/04/16 11:49:58;;;;;;;;;;;;;;;;;;5451349;26;19932;-62
2024/04/16 11:52:23;;;;;;;;;;;;;;;;;;5451479;26;20281;-61
2024/04/16 11:54:48;;;;;;;;;;;;;;;;;;5451304;26;19997;-61
2024/04/16 11:57:13;;;;;;;;;;;;;;;;;;5435379;26;19941;-61
2024/04/16 11:59:38;;;;;;;;;;;;;;;;;;5416207;26;19929;-61
2024/04/16 12:02:03;;;;;;;;;;;;;;;;;;5416656;26;19944;-61
2024/04/16 12:04:29;;;;;;;;;;;;;;;;;;5449357;26;19928;-61
2024/04/16 12:06:54;;;;;;;;;;;;;;;;;;5451445;26;19935;-61
2024/04/16 12:09:19;;;;;;;;;;;;;;;;;;5449130;26;19936;-62
2024/04/16 12:11:44;;;;;;;;;;;;;;;;;;5446506;26;19929;-61
2024/04/16 12:14:09;;;;;;;;;;;;;;;;;;5437477;26;19937;-61
2024/04/16 12:16:37;;;;;;;;;;;;;;;;;;5416545;26;19936;-61
2024/04/16 12:19:03;;;;;;;;;;;;;;;;;;5416674;26;19937;-61
2024/04/16 12:21:28;;;;;;;;;;;;;;;;;;5449178;26;19929;-61
2024/04/16 12:23:53;;;;;;;;;;;;;;;;;;5450752;26;19936;-61
2024/04/16 12:26:18;;;;;;;;;;;;;;;;;;5451242;26;20244;-61
2024/04/16 12:28:45;;;;;;;;;;;;;;;;;;5451112;26;20296;-61
2024/04/16 12:31:10;;;;;;;;;;;;;;;;;;5451488;26;19935;-61
2024/04/16 12:33:35;;;;;;;;;;;;;;;;;;5450773;26;19937;-61
2024/04/16 12:36:00;;;;;;;;;;;;;;;;;;5454602;26;19932;-61
2024/04/16 12:38:25;;;;;;;;;;;;;;;;;;5450562;26;19936;-61
2024/04/16 12:40:51;;;;;;;;;;;;;;;;;;5450817;26;19937;-60
2024/04/16 12:43:16;;;;;;;;;;;;;;;;;;5442296;26;19929;-60
2024/04/16 12:45:41;;;;;;;;;;;;;;;;;;5416227;26;19982;-61
2024/04/16 12:48:07;;;;;;;;;;;;;;;;;;5427134;26;20369;-60
2024/04/16 12:50:32;;;;;;;;;;;;;;;;;;5450910;26;20365;-60
2024/04/16 12:52:57;;;;;;;;;;;;;;;;;;5449835;26;19935;-59
2024/04/16 12:55:22;;;;;;;;;;;;;;;;;;5450892;26;20051;-60
2024/04/16 12:57:47;;;;;;;;;;;;;;;;;;5450868;26;20370;-60
2024/04/16 13:00:14;;;;;;;;;;;;;;;;;;5450347;26;21633;-60
2024/04/16 13:02:40;;;;;;;;;;;;;;;;;;5451012;26;19928;-60
2024/04/16 13:05:05;;;;;;;;;;;;;;;;;;5450318;26;19961;-59
2024/04/16 13:07:30;;;;;;;;;;;;;;;;;;5449817;26;19928;-60
2024/04/16 13:09:55;;;;;;;;;;;;;;;;;;5450481;26;19929;-60
2024/04/16 13:12:20;;;;;;;;;;;;;;;;;;5449222;26;19932;-61
2024/04/16 13:14:46;;;;;;;;;;;;;;;;;;5419781;26;19933;-61
2024/04/16 13:17:11;;;;;;;;;;;;;;;;;;5418333;26;19936;-59
2024/04/16 13:19:36;;;;;;;;;;;;;;;;;;5415873;26;19929;-60
2024/04/16 13:22:01;;;;;;;;;;;;;;;;;;5415616;26;20365;-60
2024/04/16 13:24:26;;;;;;;;;;;;;;;;;;5415698;26;20002;-61
2024/04/16 13:26:52;;;;;;;;;;;;;;;;;;5415447;26;19933;-60
2024/04/16 13:29:17;;;;;;;;;;;;;;;;;;5445289;26;19972;-60
2024/04/16 13:31:42;;;;;;;;;;;;;;;;;;5450348;26;19944;-59
2024/04/16 13:34:07;;;;;;;;;;;;;;;;;;5449981;26;19935;-61
2024/04/16 13:36:32;;;;;;;;;;;;;;;;;;5452599;26;19928;-60
2024/04/16 13:38:57;;;;;;;;;;;;;;;;;;5450361;26;19936;-62
2024/04/16 13:41:22;;;;;;;;;;;;;;;;;;5449970;26;19943;-61
2024/04/16 13:43:48;;;;;;;;;;;;;;;;;;5432951;26;19936;-60
2024/04/16 13:46:13;;;;;;;;;;;;;;;;;;5444241;26;20323;-60
2024/04/16 13:48:38;;;;;;;;;;;;;;;;;;5448268;26;19937;-60
2024/04/16 13:51:03;;;;;;;;;;;;;;;;;;5448437;26;20028;-61
2024/04/16 13:53:28;;;;;;;;;;;;;;;;;;5448269;26;19936;-61
2024/04/16 13:55:53;;;;;;;;;;;;;;;;;;5448791;26;19935;-59
2024/04/16 13:58:18;;;;;;;;;;;;;;;;;;5448316;26;19929;-60
2024/04/16 14:00:43;;;;;;;;;;;;;;;;;;5448210;26;20420;-60
2024/04/16 14:03:09;;;;;;;;;;;;;;;;;;5445730;26;19929;-60
2024/04/16 14:05:34;;;;;;;;;;;;;;;;;;5416574;26;19979;-61
2024/04/16 14:07:59;;;;;;;;;;;;;;;;;;5415026;26;20275;-61
2024/04/16 14:10:24;;;;;;;;;;;;;;;;;;5429711;26;19928;-61
2024/04/16 14:12:49;;;;;;;;;;;;;;;;;;5429596;26;19977;-60
2024/04/16 14:15:14;;;;;;;;;;;;;;;;;;5430825;26;19932;-60
2024/04/16 14:17:41;;;;;;;;;;;;;;;;;;5449286;26;19997;-60
2024/04/16 14:20:06;;;;;;;;;;;;;;;;;;5449149;26;19945;-60
2024/04/16 14:22:31;;;;;;;;;;;;;;;;;;5449619;26;19960;-61
2024/04/16 14:24:56;;;;;;;;;;;;;;;;;;5452858;26;19940;-60
2024/04/16 14:27:21;;;;;;;;;;;;;;;;;;5452780;26;20367;-60
2024/04/16 14:29:47;;;;;;;;;;;;;;;;;;5452494;26;20264;-60
2024/04/16 14:32:12;;;;;;;;;;;;;;;;;;5452306;26;19939;-62
2024/04/16 14:34:37;;;;;;;;;;;;;;;;;;5454741;26;20317;-59
2024/04/16 14:37:04;;;;;;;;;;;;;;;;;;5452547;26;19996;-60
2024/04/16 14:39:29;;;;;;;;;;;;;;;;;;5452645;26;19998;-61
2024/04/16 14:41:54;;;;;;;;;;;;;;;;;;5452112;26;19944;-61
2024/04/16 14:44:19;;;;;;;;;;;;;;;;;;5441264;26;19929;-60
2024/04/16 14:46:46;;;;;;;;;;;;;;;;;;5452330;26;19997;-60
2024/04/16 14:49:11;;;;;;;;;;;;;;;;;;5453140;26;19928;-60
2024/04/16 14:51:36;;;;;;;;;;;;;;;;;;5452352;26;19929;-61
2024/04/16 14:54:01;;;;;;;;;;;;;;;;;;5451924;26;19932;-61
2024/04/16 14:56:26;;;;;;;;;;;;;;;;;;5452686;26;19928;-61
2024/04/16 14:58:51;;;;;;;;;;;;;;;;;;5452032;26;19928;-60
2024/04/16 15:01:17;;;;;;;;;;;;;;;;;;5452347;26;19940;-62
2024/04/16 15:03:42;;;;;;;;;;;;;;;;;;5451970;26;19929;-62
2024/04/16 15:06:07;;;;;;;;;;;;;;;;;;5452094;26;19936;-61
2024/04/16 15:08:32;;;;;;;;;;;;;;;;;;5451232;26;19944;-61
2024/04/16 15:10:57;;;;;;;;;;;;;;;;;;5451732;26;19932;-62
2024/04/16 15:13:23;;;;;;;;;;;;;;;;;;5439466;26;19937;-62
2024/04/16 15:15:48;;;;;;;;;;;;;;;;;;5417482;26;19929;-61
2024/04/16 15:18:13;;;;;;;;;;;;;;;;;;5417280;26;19929;-61
2024/04/16 15:20:38;;;;;;;;;;;;;;;;;;5417320;26;19939;-62
2024/04/16 15:23:04;;;;;;;;;;;;;;;;;;5417306;26;20358;-62
2024/04/16 15:25:29;;;;;;;;;;;;;;;;;;5417280;26;19929;-61
2024/04/16 15:27:54;;;;;;;;;;;;;;;;;;5441748;26;19929;-62
2024/04/16 15:30:19;;;;;;;;;;;;;;;;;;5451803;26;20269;-61
2024/04/16 15:32:44;;;;;;;;;;;;;;;;;;5453905;26;19942;-61
2024/04/16 15:35:10;;;;;;;;;;;;;;;;;;5474027;26;19935;-61
2024/04/16 15:37:35;;;;;;;;;;;;;;;;;;5452525;26;19928;-61
2024/04/16 15:40:00;;;;;;;;;;;;;;;;;;5460064;26;19943;-61
2024/04/16 15:42:25;;;;;;;;;;;;;;;;;;5473354;26;20388;-62
2024/04/16 15:44:50;;;;;;;;;;;;;;;;;;5454231;26;20004;-62
2024/04/16 15:47:15;;;;;;;;;;;;;;;;;;5456964;26;19929;-62
2024/04/16 15:49:40;;;;;;;;;;;;;;;;;;5456202;26;19940;-61
2024/04/16 15:52:05;;;;;;;;;;;;;;;;;;5462788;26;19929;-62
2024/04/16 15:54:31;;;;;;;;;;;;;;;;;;5456149;26;19940;-62
2024/04/16 15:56:56;;;;;;;;;;;;;;;;;;5451288;26;19928;-61
2024/04/16 15:59:21;;;;;;;;;;;;;;;;;;5442224;26;19936;-62
2024/04/16 16:01:46;;;;;;;;;;;;;;;;;;5447433;26;19929;-62
2024/04/16 16:04:11;;;;;;;;;;;;;;;;;;5447877;26;19936;-61
2024/04/16 16:06:36;;;;;;;;;;;;;;;;;;5427468;26;19929;-61
2024/04/16 16:09:02;;;;;;;;;;;;;;;;;;5443249;26;20491;-61
2024/04/16 16:11:27;;;;;;;;;;;;;;;;;;5447535;26;19939;-61
2024/04/16 16:13:52;;;;;;;;;;;;;;;;;;5442003;26;20051;-60
2024/04/16 16:16:17;;;;;;;;;;;;;;;;;;5432024;26;19978;-60
2024/04/16 16:18:42;;;;;;;;;;;;;;;;;;5436626;26;19936;-61
2024/04/16 16:21:08;;;;;;;;;;;;;;;;;;5444502;26;19934;-60
2024/04/16 16:23:33;;;;;;;;;;;;;;;;;;5446846;26;20013;-61
2024/04/16 16:25:58;;;;;;;;;;;;;;;;;;5447389;26;19932;-61
2024/04/16 16:28:24;;;;;;;;;;;;;;;;;;5447522;26;19928;-61
2024/04/16 16:30:49;;;;;;;;;;;;;;;;;;5447052;26;20297;-61
2024/04/16 16:33:14;;;;;;;;;;;;;;;;;;5446807;26;19955;-61